Curtiembre, Argentina
Current Conditions -  °F | °C
As of 8:00 PM on Tuesday 27 Jan 2015 (Local Time) from SAAR Reporting Station
Broken Clouds Broken Clouds  
Wind Chill: 81°   Ceiling: 20000
Heat Index: 83°   Visibility: 6mi
Dew Point: 68°   Wind: 0mph
Humidity: 65%   Direction: NA
Pressure: 29.65"   Gusts: NA
Location:  31.47°S, 60.17°W
Report Text: SAAR 272300Z 00000KT 9999 FEW035TCU SCT100BKN200 27/20 Q1004
Loading
Personal Weather Stations






























Interactive Weather Map New forecast layout! Learn more

10-Day Weather Forecast

Advertisements
Track Severe Weather on mobile